Buhl, ID (83316)

8:30 AM MST on February 06, 2016 (GMT -0700)
KIDBUHL3 | | Change Station
CLOSE
Current Station
Personal Weather Station
Location: Buhl, ID
Elevation: 3660 ft
Nearby Weather Stations

Elev 3660 ft 42.62 °N, 114.75 °W | Updated 23 seconds ago

Clear
Clear
23.9 °F
Feels Like 24 °F
N
1.7
Wind Variable Wind from ESE

Today
High -- | Low -- °F
--% Chance of Precip.
Yesterday
High -- | Low -- °F
Precip. -- in
Pressure 30.48 in
Visibility 10.0 miles
Clouds Mostly Cloudy 8500 ft
Windchill 24 °F
Dew Point 21 °F
Humidity 90%
Rainfall 0.00 in
Snow Depth Not available.
7:48 AM 5:58 PM
Waning Crescent, 5% visible
METAR KTWF 061453Z 15005KT 10SM BKN085 M03/M05 A3042 RMK AO2 SLP320 I3000 T10281050 58002
Pressure 30.48 in
Visibility 10.0 miles
Clouds Mostly Cloudy 8500 ft
Windchill 24 °F
Dew Point 21 °F
Humidity 90%
Rainfall 0.00 in
Snow Depth Not available.
7:48 AM 5:58 PM
Waning Crescent, 5% visible
METAR KTWF 061453Z 15005KT 10SM BKN085 M03/M05 A3042 RMK AO2 SLP320 I3000 T10281050 58002

10-Day Weather Forecast

Almanac

Astronomy

Feb. 06, 2016 Rise Set
Actual Time
Civil Twilight
Nautical Twilight
Astronomical Twilight
Moon
Length of Visible Light
Length of Day
Tomorrow will be .
, % of the Moon is Illuminated

Today's Extremes

State Highs State Lows

Community

WunderPhotos

Upload Photos

1,890,987 photos uploaded!

WunderBlog® & News

Nearby

Air Quality

  Air Quality AQ Index Pollutant
Not available.

Snow Depth

Station Depth Elevation

Earthquake Activity

City Distance Mag. Time & Date
Minimum magnitude displayed is 2.5.

Coastal Water Temperatures

Place Temperature

Stations

Nearby Weather Stations

Station Location Temp. Windchill Dew Point Humidity Wind Precip. Elev Updated Type
                   

Watches & Warnings

There are currently no watches in effect.